Hauptseite
METAR-TAF:

METAR-TAF

Flughäfen :

Flughafen Sakon Nakhon

Sakon Nakhon, Thailand

Breite: 17-11-42N, Länge: 104-07-08E, Höhe: 161 m

Beobachtung

Neuester Wetterbericht von vor 6 Stunden und 5 Minuten, um 14:00 UTC
Wind 9 kt aus Ost/Südost
Temperatur 25°C
Luftfeuchtigkeit 65%
Luftdruck 1014 hPa
Sichtweite 10 km oder mehr
keine Wolken unter 1500 m und keine Kumulonimbus oder Gewitterwolken

METAR: VTUI 201400Z 12009KT CAVOK 25/18 Q1014 NOSIG

Zeit: 03:05 (20:05 UTC)

Prognose

Neuester Wetterbericht von vor 3 Stunden und 5 Minuten, um 17:00 UTC
Gültige Prognose vom 20 um 18 UTC bis 21 um 18 UTC
Wind 10 kt aus Ost/Nordost
Sichtweite 10 km oder mehr
keine Wolken unter 1500 m und keine Kumulonimbus oder Gewitterwolken

TAF: VTUI 201700Z 2018/2118 06010KT CAVOK

Wetterbeobachtungen und Prognosen von mehr als 4000 Flughäfen (METAR und TAF Bericht).

Die verfügbaren Stationen werden durch gelbe und rote Markierungen auf der Karte dargestellt.

Führen Sie die Maus auf sie, um den Namen der Station zu sehen.

Darauf klicken, um die Beobachtung von Wetterbeobachtungen und Prognosen zu sehen.

Um die Karte zu ändern : klicken Sie auf den grünen Tasten mit einem schwarzen Kreuz Zum Vergrößern, auf den grünen Button mit einem Gedankenstrich zu verkleinern, oder auf die grünen Pfeile für benachbarte Karten.


METAR-TAF: